Time;durP1;ratioP1;P1;durP2;ratioP2;P2;SDS_P1;SDS_P2;PMS_P1;PMS_P2;Temp;Humidity;BMP_temperature;BMP_pressure;BME280_temperature;BME280_humidity;BME280_pressure;Samples;Min_cycle;Max_cycle;Signal;HPM_P1;HPM_P2
2022/04/02 00:00:29;;;;;;;2.53;1.65;;;12.70;53.10;;;;;;3926562;30;20502;-64
2022/04/02 00:02:52;;;;;;;2.08;1.70;;;12.70;53.10;;;;;;3926253;30;20476;-64
2022/04/02 00:05:14;;;;;;;3.35;1.83;;;12.70;53.10;;;;;;3926394;30;20113;-64
2022/04/02 00:07:36;;;;;;;2.83;1.60;;;12.70;52.90;;;;;;3925942;30;20131;-63
2022/04/02 00:10:00;;;;;;;3.03;2.08;;;12.70;53.00;;;;;;3912574;30;20044;-64
2022/04/02 00:12:22;;;;;;;4.03;1.85;;;12.70;53.00;;;;;;3926621;30;20451;-65
2022/04/02 00:14:47;;;;;;;2.55;2.20;;;12.70;53.10;;;;;;3926684;30;20155;-64
2022/04/02 00:17:09;;;;;;;2.53;1.80;;;12.70;53.00;;;;;;3926380;30;20146;-65
2022/04/02 00:19:32;;;;;;;2.47;1.90;;;12.70;53.20;;;;;;3926444;30;20060;-66
2022/04/02 00:21:54;;;;;;;2.63;1.83;;;12.70;53.30;;;;;;3926663;30;20567;-66
2022/04/02 00:24:16;;;;;;;2.67;1.80;;;12.60;53.30;;;;;;3913150;30;20060;-66
2022/04/02 00:26:39;;;;;;;1.90;1.70;;;12.70;53.10;;;;;;3927246;30;20062;-67
2022/04/02 00:29:02;;;;;;;2.33;2.00;;;12.60;52.00;;;;;;3926798;30;20056;-66
2022/04/02 00:31:29;;;;;;;2.13;1.90;;;12.60;52.50;;;;;;3926658;30;20052;-66
2022/04/02 00:33:51;;;;;;;2.92;1.73;;;12.60;52.10;;;;;;3925968;30;20099;-66
2022/04/02 00:36:15;;;;;;;2.78;1.77;;;12.60;52.40;;;;;;3913071;30;20084;-66
2022/04/02 00:38:39;;;;;;;2.58;2.03;;;12.60;52.80;;;;;;3913227;30;20536;-67
2022/04/02 00:41:01;;;;;;;1.90;1.80;;;12.60;52.80;;;;;;3926455;30;20420;-67
2022/04/02 00:43:27;;;;;;;2.03;1.92;;;12.60;52.80;;;;;;3926634;30;20559;-66
2022/04/02 00:45:50;;;;;;;2.38;1.75;;;12.50;52.50;;;;;;3926570;30;20082;-67
2022/04/02 00:48:12;;;;;;;2.72;1.88;;;12.50;52.70;;;;;;3926989;30;20060;-66
2022/04/02 00:50:35;;;;;;;3.45;2.08;;;12.50;52.30;;;;;;3913366;30;20463;-66
2022/04/02 00:52:56;;;;;;;2.28;1.63;;;12.50;52.30;;;;;;3899167;30;20060;-66
2022/04/02 00:55:19;;;;;;;2.13;1.98;;;12.50;52.30;;;;;;3898903;30;20199;-65
2022/04/02 00:57:41;;;;;;;2.20;1.92;;;12.50;52.60;;;;;;3913125;30;20053;-65
2022/04/02 01:00:05;;;;;;;2.13;1.90;;;12.50;52.50;;;;;;3925770;30;20114;-65
2022/04/02 01:02:27;;;;;;;1.98;1.70;;;12.50;51.70;;;;;;3913328;30;20053;-65
2022/04/02 01:04:50;;;;;;;5.05;2.30;;;12.50;52.30;;;;;;3913438;30;20138;-65
2022/04/02 01:07:12;;;;;;;3.45;2.00;;;12.40;52.30;;;;;;3926471;30;20062;-66
2022/04/02 01:09:35;;;;;;;2.78;1.80;;;12.40;52.60;;;;;;3925628;30;20126;-66
2022/04/02 01:11:58;;;;;;;3.63;1.75;;;12.40;53.10;;;;;;3926892;30;20409;-67
2022/04/02 01:14:21;;;;;;;2.90;2.28;;;12.40;52.80;;;;;;3898419;30;20091;-65
2022/04/02 01:16:49;;;;;;;3.67;1.80;;;12.40;52.70;;;;;;3911739;30;20053;-65
2022/04/02 01:19:15;;;;;;;4.03;2.10;;;12.40;53.10;;;;;;3912783;30;20488;-65
2022/04/02 01:21:38;;;;;;;2.05;1.85;;;12.40;52.10;;;;;;3913783;30;20122;-65
2022/04/02 01:24:34;;;;;;;5.95;2.20;;;12.40;52.40;;;;;;3925909;30;20059;-65
2022/04/02 01:26:56;;;;;;;4.07;1.80;;;12.40;53.20;;;;;;3929014;30;20048;-65
2022/04/02 01:29:21;;;;;;;2.85;2.05;;;12.30;53.20;;;;;;3928301;30;20052;-65
2022/04/02 01:31:51;;;;;;;2.85;1.88;;;12.30;53.50;;;;;;3916011;30;20147;-65
2022/04/02 01:34:16;;;;;;;4.20;2.17;;;12.30;53.60;;;;;;3916134;30;20133;-65
2022/04/02 01:36:40;;;;;;;3.45;1.98;;;12.30;53.60;;;;;;3916034;30;20129;-66
2022/04/02 01:39:14;;;;;;;6.32;2.10;;;12.30;53.40;;;;;;3928332;30;20065;-65
2022/04/02 01:41:40;;;;;;;3.45;1.85;;;12.30;53.40;;;;;;3915773;30;20139;-66
2022/04/02 01:44:04;;;;;;;5.60;1.95;;;12.30;53.10;;;;;;3928245;30;20063;-66
2022/04/02 01:46:29;;;;;;;2.35;1.90;;;12.30;53.40;;;;;;3915540;30;20052;-65
2022/04/02 01:48:51;;;;;;;2.63;1.75;;;12.30;53.70;;;;;;3927206;30;20118;-65
2022/04/02 01:51:13;;;;;;;3.45;1.65;;;12.30;53.50;;;;;;3916166;30;20060;-64
2022/04/02 01:53:36;;;;;;;3.22;1.85;;;12.30;53.50;;;;;;3915340;30;20060;-65
2022/04/02 01:56:03;;;;;;;3.17;2.30;;;12.30;53.80;;;;;;3916034;30;20541;-66
2022/04/02 01:58:32;;;;;;;2.50;2.00;;;12.30;53.70;;;;;;3929175;30;20137;-66
2022/04/02 02:00:56;;;;;;;3.92;1.85;;;12.20;53.90;;;;;;3915584;30;20055;-65
2022/04/02 02:03:19;;;;;;;2.75;1.90;;;12.20;54.00;;;;;;3915322;30;20059;-66
2022/04/02 02:05:42;;;;;;;2.00;1.45;;;12.30;54.00;;;;;;3929094;30;20156;-65
2022/04/02 02:08:05;;;;;;;3.53;1.50;;;12.20;53.10;;;;;;3915383;30;20082;-67
2022/04/02 02:10:34;;;;;;;2.92;1.90;;;12.20;53.20;;;;;;3927162;30;20084;-65
2022/04/02 02:13:15;;;;;;;4.80;1.73;;;12.20;52.90;;;;;;3928207;30;20143;-65
2022/04/02 02:15:42;;;;;;;1.73;1.63;;;12.20;52.70;;;;;;3927767;30;20449;-66
2022/04/02 02:18:04;;;;;;;3.75;2.03;;;12.20;53.10;;;;;;3927925;30;21047;-65
2022/04/02 02:20:26;;;;;;;2.10;1.88;;;12.20;53.30;;;;;;3926912;30;20505;-66
2022/04/02 02:22:50;;;;;;;2.38;1.60;;;12.20;52.70;;;;;;3927147;30;20052;-65
2022/04/02 02:25:16;;;;;;;1.58;1.48;;;12.20;52.90;;;;;;3928659;30;20060;-66
2022/04/02 02:27:40;;;;;;;2.60;1.70;;;12.10;53.00;;;;;;3927704;30;20139;-65
2022/04/02 02:30:04;;;;;;;1.48;1.38;;;12.10;53.50;;;;;;3914596;30;20057;-66
2022/04/02 02:32:28;;;;;;;2.72;1.50;;;12.10;53.90;;;;;;3926979;30;20676;-66
2022/04/02 02:37:34;;;;;;;2.67;1.83;;;12.10;53.90;;;;;;3926729;30;20060;-66
2022/04/02 02:40:03;;;;;;;2.13;1.92;;;12.10;54.10;;;;;;3927709;30;20056;-66
2022/04/02 02:42:25;;;;;;;2.72;1.52;;;12.10;53.90;;;;;;3927527;30;20056;-65
2022/04/02 02:44:59;;;;;;;3.25;1.48;;;12.10;53.10;;;;;;3902524;30;20068;-65
2022/04/02 02:47:24;;;;;;;4.07;1.73;;;12.00;53.50;;;;;;3927987;30;20490;-65
2022/04/02 02:49:49;;;;;;;1.73;1.63;;;12.00;53.40;;;;;;3927682;30;20056;-66
2022/04/02 02:52:16;;;;;;;1.60;1.50;;;12.00;53.70;;;;;;3914860;30;20056;-66
2022/04/02 02:54:40;;;;;;;2.85;1.80;;;12.00;53.90;;;;;;3927696;30;20059;-66
2022/04/02 02:57:02;;;;;;;2.80;1.90;;;12.00;53.90;;;;;;3914659;30;20052;-66
2022/04/02 02:59:24;;;;;;;2.88;1.65;;;12.00;53.50;;;;;;3913081;30;20163;-66
2022/04/02 03:01:46;;;;;;;2.30;1.50;;;12.00;52.80;;;;;;3913692;30;20080;-66
2022/04/02 03:04:12;;;;;;;1.58;1.45;;;12.00;53.40;;;;;;3900174;30;20057;-65
2022/04/02 03:06:36;;;;;;;4.53;1.50;;;12.00;54.00;;;;;;3912937;30;20071;-65
2022/04/02 03:08:58;;;;;;;4.63;1.77;;;11.90;53.90;;;;;;3924868;30;20059;-65
2022/04/02 03:11:20;;;;;;;3.75;2.05;;;12.00;53.60;;;;;;3902518;30;20061;-65
2022/04/02 03:13:42;;;;;;;1.50;1.17;;;12.00;53.60;;;;;;3914973;30;20057;-65
2022/04/02 03:16:06;;;;;;;2.08;1.55;;;12.00;53.00;;;;;;3914531;30;20074;-65
2022/04/02 03:18:33;;;;;;;6.38;1.73;;;11.90;53.20;;;;;;3900930;30;20049;-65
2022/04/02 03:21:01;;;;;;;2.03;1.65;;;11.90;53.00;;;;;;3925947;30;20056;-66
2022/04/02 03:23:24;;;;;;;3.53;1.50;;;11.90;53.40;;;;;;3927616;30;20067;-66
2022/04/02 03:25:47;;;;;;;2.28;1.85;;;11.90;53.10;;;;;;3926312;30;20842;-66
2022/04/02 03:28:10;;;;;;;1.63;1.30;;;11.90;52.90;;;;;;3914245;30;20489;-65
2022/04/02 03:30:33;;;;;;;3.05;1.55;;;11.90;53.30;;;;;;3926744;30;20144;-65
2022/04/02 03:32:57;;;;;;;5.63;1.45;;;11.90;53.20;;;;;;3901806;30;20061;-65
2022/04/02 03:35:20;;;;;;;4.45;1.83;;;11.90;53.50;;;;;;3927420;30;20063;-65
2022/04/02 03:37:48;;;;;;;2.08;1.63;;;11.80;53.60;;;;;;3913663;30;20075;-64
2022/04/02 03:40:14;;;;;;;2.15;1.50;;;11.80;53.10;;;;;;3914154;30;20053;-66
2022/04/02 03:42:38;;;;;;;2.45;1.50;;;11.90;53.00;;;;;;3913637;30;20171;-65
2022/04/02 03:45:05;;;;;;;2.38;1.65;;;11.80;52.60;;;;;;3913056;30;20056;-65
2022/04/02 03:47:28;;;;;;;3.25;2.10;;;11.80;53.30;;;;;;3926385;30;20067;-66
2022/04/02 03:49:51;;;;;;;2.83;1.40;;;11.80;53.60;;;;;;3913593;30;20063;-66
2022/04/02 03:52:43;;;;;;;;;;;11.80;53.10;;;;;;3924806;30;20419;-65
2022/04/02 03:55:12;;;;;;;4.55;1.90;;;11.80;53.10;;;;;;3926206;30;19969;-66
2022/04/02 03:57:35;;;;;;;2.88;1.77;;;11.70;53.30;;;;;;3911468;30;20114;-66
2022/04/02 03:59:59;;;;;;;3.05;1.60;;;11.70;53.40;;;;;;3898993;30;20471;-66
2022/04/02 04:02:22;;;;;;;4.03;1.60;;;11.70;53.60;;;;;;3899178;30;20057;-65
2022/04/02 04:04:46;;;;;;;2.20;1.70;;;11.70;53.80;;;;;;3920046;30;20492;-66
2022/04/02 04:07:10;;;;;;;1.80;1.55;;;11.70;54.00;;;;;;3926182;30;20086;-66
2022/04/02 04:09:34;;;;;;;2.65;1.60;;;11.70;54.00;;;;;;3925998;30;20056;-66
2022/04/02 04:11:58;;;;;;;3.58;1.58;;;11.70;53.90;;;;;;3926777;30;20145;-66
2022/04/02 04:14:26;;;;;;;4.13;1.58;;;11.70;54.80;;;;;;3919719;30;20075;-66
2022/04/02 04:16:49;;;;;;;5.07;1.90;;;11.70;53.80;;;;;;3911529;30;20140;-63
2022/04/02 04:19:11;;;;;;;4.97;1.70;;;11.70;53.10;;;;;;3912460;30;20139;-65
2022/04/02 04:21:35;;;;;;;5.57;1.90;;;11.70;53.50;;;;;;3913804;30;20458;-65
2022/04/02 04:23:57;;;;;;;3.22;1.50;;;11.70;53.60;;;;;;3913571;30;20574;-64
2022/04/02 04:26:22;;;;;;;3.47;1.70;;;11.70;53.70;;;;;;3913576;30;20407;-64
2022/04/02 04:28:46;;;;;;;3.03;2.42;;;11.60;54.00;;;;;;3911460;30;20648;-64
2022/04/02 04:31:10;;;;;;;1.70;1.40;;;11.70;54.40;;;;;;3899096;30;20056;-66
2022/04/02 04:33:33;;;;;;;4.30;1.50;;;11.70;54.40;;;;;;3911634;30;20060;-65
2022/04/02 04:35:55;;;;;;;1.65;1.55;;;11.70;54.60;;;;;;3926986;30;20051;-66
2022/04/02 04:38:17;;;;;;;3.78;2.03;;;11.60;54.50;;;;;;3913712;30;20511;-65
2022/04/02 04:40:40;;;;;;;5.07;1.95;;;11.60;54.20;;;;;;3913245;30;20060;-65
2022/04/02 04:43:03;;;;;;;3.53;1.70;;;11.60;53.40;;;;;;3925041;30;20540;-66
2022/04/02 04:45:31;;;;;;;2.22;1.85;;;11.60;53.50;;;;;;3913298;30;20118;-65
2022/04/02 04:47:55;;;;;;;4.00;1.88;;;11.60;54.20;;;;;;3925879;30;20060;-65
2022/04/02 04:50:19;;;;;;;3.20;2.28;;;11.60;54.50;;;;;;3925912;30;20470;-66
2022/04/02 04:52:44;;;;;;;3.08;1.90;;;11.60;54.60;;;;;;3925586;30;20052;-60
2022/04/02 04:55:07;;;;;;;3.28;1.70;;;11.60;54.90;;;;;;3926233;30;20048;-64
2022/04/02 04:57:30;;;;;;;2.05;1.80;;;11.70;55.90;;;;;;3918380;30;20064;-64
2022/04/02 04:59:58;;;;;;;4.90;1.80;;;11.70;55.00;;;;;;3930794;30;20056;-63
2022/04/02 05:02:25;;;;;;;6.20;1.70;;;11.70;54.30;;;;;;3930661;30;20151;-64
2022/04/02 05:04:47;;;;;;;2.08;1.83;;;11.70;54.60;;;;;;3930955;30;20082;-64
2022/04/02 05:07:10;;;;;;;2.10;1.60;;;11.70;54.30;;;;;;3918237;30;20517;-64
2022/04/02 05:09:33;;;;;;;4.95;1.90;;;11.70;54.00;;;;;;3917744;30;20140;-64
2022/04/02 05:11:59;;;;;;;2.78;1.90;;;11.70;54.60;;;;;;3917919;30;20492;-65
2022/04/02 05:14:23;;;;;;;3.47;1.85;;;11.70;55.00;;;;;;3930483;30;20063;-64
2022/04/02 05:16:48;;;;;;;3.35;1.85;;;11.60;55.10;;;;;;3917902;30;20060;-64
2022/04/02 05:19:12;;;;;;;5.18;1.90;;;11.60;55.30;;;;;;3931327;30;20056;-64
2022/04/02 05:21:36;;;;;;;5.38;2.53;;;11.60;55.00;;;;;;3918251;30;20212;-64
2022/04/02 05:23:59;;;;;;;3.63;2.15;;;11.60;55.40;;;;;;3918375;30;20090;-65
2022/04/02 05:26:22;;;;;;;4.47;2.30;;;11.60;55.60;;;;;;3931648;30;20146;-64
2022/04/02 05:28:50;;;;;;;5.28;2.30;;;11.60;55.70;;;;;;3917688;30;20481;-64
2022/04/02 05:31:13;;;;;;;4.70;2.13;;;11.60;55.60;;;;;;3916512;30;20124;-64
2022/04/02 05:33:35;;;;;;;5.68;1.92;;;11.60;55.90;;;;;;3931415;30;20063;-64
2022/04/02 05:36:04;;;;;;;6.63;2.20;;;11.60;56.00;;;;;;3930984;30;20113;-64
2022/04/02 05:38:27;;;;;;;3.42;1.77;;;11.60;55.90;;;;;;3930476;30;20109;-64
2022/04/02 05:40:49;;;;;;;3.15;1.70;;;11.60;55.60;;;;;;3930342;30;20452;-64
2022/04/02 05:43:11;;;;;;;5.38;1.70;;;11.60;55.60;;;;;;3917742;30;20061;-64
2022/04/02 05:45:34;;;;;;;3.90;2.00;;;11.60;55.90;;;;;;3917428;30;20055;-64
2022/04/02 05:47:56;;;;;;;7.10;2.22;;;11.60;56.00;;;;;;3931173;30;20060;-64
2022/04/02 05:50:20;;;;;;;2.13;1.92;;;11.60;56.20;;;;;;3931118;30;20056;-64
2022/04/02 05:52:59;;;;;;;3.72;2.15;;;11.60;56.40;;;;;;3915721;30;20053;-64
2022/04/02 05:55:21;;;;;;;3.72;2.53;;;11.60;55.90;;;;;;3923688;30;20056;-64
2022/04/02 05:57:45;;;;;;;1.95;1.83;;;11.60;55.90;;;;;;3931094;30;20070;-64
2022/04/02 06:00:10;;;;;;;4.32;2.50;;;11.60;55.50;;;;;;3930916;30;20056;-64
2022/04/02 06:02:36;;;;;;;2.65;2.00;;;11.60;55.70;;;;;;3930914;30;20556;-64
2022/04/02 06:04:58;;;;;;;4.32;1.98;;;11.60;55.30;;;;;;3930432;30;20363;-64
2022/04/02 06:07:20;;;;;;;6.07;2.03;;;11.60;55.00;;;;;;3929046;30;20064;-65
2022/04/02 06:09:44;;;;;;;1.90;1.80;;;11.60;55.10;;;;;;3928594;30;20063;-64
2022/04/02 06:12:06;;;;;;;4.18;2.20;;;11.60;55.30;;;;;;3928199;30;20056;-64
2022/04/02 06:14:28;;;;;;;4.30;2.58;;;11.60;55.00;;;;;;3928446;30;20063;-64
2022/04/02 06:16:50;;;;;;;3.97;2.08;;;11.60;55.50;;;;;;3928324;30;20052;-64
2022/04/02 06:19:12;;;;;;;2.10;1.85;;;11.60;54.70;;;;;;3928496;30;20060;-64
2022/04/02 06:21:34;;;;;;;1.90;1.50;;;11.60;53.80;;;;;;3928365;30;20056;-64
2022/04/02 06:23:56;;;;;;;4.88;1.50;;;11.60;54.30;;;;;;3928264;30;20066;-64
2022/04/02 06:26:20;;;;;;;3.53;1.55;;;11.60;54.40;;;;;;3928037;30;20137;-64
2022/04/02 06:28:43;;;;;;;4.65;1.65;;;11.60;53.60;;;;;;3915030;30;20122;-64
2022/04/02 06:31:06;;;;;;;4.00;1.65;;;11.60;54.20;;;;;;3928348;30;20501;-64
2022/04/02 06:33:34;;;;;;;2.38;1.67;;;11.70;53.80;;;;;;3914136;30;20491;-64
2022/04/02 06:35:57;;;;;;;2.03;1.67;;;11.60;53.40;;;;;;3914890;30;20053;-64
2022/04/02 06:38:19;;;;;;;4.38;2.05;;;11.70;53.80;;;;;;3927499;30;20524;-64
2022/04/02 06:40:42;;;;;;;1.98;1.75;;;11.70;53.10;;;;;;3928981;30;20127;-64
2022/04/02 06:43:05;;;;;;;3.58;1.73;;;11.70;54.00;;;;;;3928443;30;20079;-64
2022/04/02 06:45:43;;;;;;;6.13;1.75;;;11.70;54.50;;;;;;3912770;30;20064;-64
2022/04/02 06:48:06;;;;;;;1.75;1.65;;;11.70;54.60;;;;;;3913779;30;20057;-64
2022/04/02 06:50:28;;;;;;;2.15;1.70;;;11.70;55.10;;;;;;3926769;30;20074;-64
2022/04/02 06:52:50;;;;;;;2.47;1.88;;;11.70;55.50;;;;;;3927414;30;20058;-64
2022/04/02 06:55:15;;;;;;;1.98;1.38;;;11.70;55.00;;;;;;3927199;30;20424;-64
2022/04/02 06:57:42;;;;;;;2.08;1.70;;;11.70;54.00;;;;;;3927674;30;20072;-64
2022/04/02 07:00:07;;;;;;;3.83;1.77;;;11.70;53.20;;;;;;3907899;30;20091;-64
2022/04/02 07:02:29;;;;;;;3.47;1.88;;;11.70;53.60;;;;;;3911896;30;20071;-64
2022/04/02 07:04:52;;;;;;;2.78;1.98;;;11.70;53.30;;;;;;3912008;30;20060;-64
2022/04/02 07:07:14;;;;;;;5.18;1.90;;;11.60;53.20;;;;;;3912677;30;20060;-64
2022/04/02 07:09:36;;;;;;;4.10;2.00;;;11.60;53.20;;;;;;3919853;30;20056;-64
2022/04/02 07:11:59;;;;;;;3.17;1.30;;;11.60;52.30;;;;;;3928051;30;20083;-64
2022/04/02 07:14:21;;;;;;;2.00;1.33;;;11.60;51.60;;;;;;3929062;30;20152;-64
2022/04/02 07:16:44;;;;;;;2.13;1.40;;;11.50;51.20;;;;;;3927820;30;20076;-64
2022/04/02 07:19:07;;;;;;;2.28;1.55;;;11.50;50.60;;;;;;3926723;30;20142;-64
2022/04/02 07:21:30;;;;;;;1.92;1.42;;;11.50;51.50;;;;;;3929603;30;20464;-64
2022/04/02 07:23:53;;;;;;;5.45;1.52;;;11.40;52.30;;;;;;3927461;30;20056;-64
2022/04/02 07:26:17;;;;;;;4.40;1.70;;;11.40;52.90;;;;;;3927691;30;20052;-65
2022/04/02 07:28:39;;;;;;;3.95;1.60;;;11.30;53.20;;;;;;3926589;30;20084;-65
2022/04/02 07:31:02;;;;;;;1.90;1.67;;;11.30;53.90;;;;;;3927209;30;20513;-65
2022/04/02 07:33:25;;;;;;;3.88;1.63;;;11.30;53.90;;;;;;3927408;30;20521;-64
2022/04/02 07:35:54;;;;;;;3.60;1.60;;;11.30;53.50;;;;;;3927176;30;20071;-63
2022/04/02 07:38:22;;;;;;;1.58;1.48;;;11.30;53.50;;;;;;3927288;30;20067;-64
2022/04/02 07:40:52;;;;;;;1.95;1.50;;;11.30;53.60;;;;;;3926776;30;20177;-64
2022/04/02 07:43:20;;;;;;;13.63;1.92;;;11.30;53.70;;;;;;3927078;30;20518;-64
2022/04/02 07:45:45;;;;;;;3.58;1.75;;;11.30;54.10;;;;;;3926640;30;20140;-64
2022/04/02 07:48:10;;;;;;;1.42;1.33;;;11.30;54.00;;;;;;3927367;30;20494;-63
2022/04/02 07:50:34;;;;;;;3.45;1.35;;;11.30;53.70;;;;;;3927794;30;20048;-64
2022/04/02 07:52:57;;;;;;;3.80;1.30;;;11.30;54.00;;;;;;3927032;30;20114;-63
2022/04/02 07:55:24;;;;;;;4.47;1.13;;;11.30;54.90;;;;;;3914028;30;20057;-63
2022/04/02 07:57:50;;;;;;;4.10;1.20;;;11.40;54.40;;;;;;3914278;30;20067;-63
2022/04/02 08:00:15;;;;;;;2.42;1.33;;;11.40;54.50;;;;;;3914017;30;20425;-64
2022/04/02 08:02:38;;;;;;;2.38;1.15;;;11.40;53.50;;;;;;3926902;30;20560;-63
2022/04/02 08:05:02;;;;;;;2.28;1.25;;;11.50;53.40;;;;;;3926845;30;20048;-64
2022/04/02 08:07:26;;;;;;;3.05;1.60;;;11.40;54.00;;;;;;3926755;30;20147;-64
2022/04/02 08:09:50;;;;;;;2.35;1.88;;;11.50;53.10;;;;;;3926265;30;20056;-64
2022/04/02 08:12:13;;;;;;;3.10;1.30;;;11.50;52.90;;;;;;3927405;30;20056;-64
2022/04/02 08:14:38;;;;;;;2.15;1.17;;;11.50;52.60;;;;;;3927363;30;20060;-64
2022/04/02 08:17:01;;;;;;;6.50;1.70;;;11.50;52.90;;;;;;3927434;30;20052;-64
2022/04/02 08:19:23;;;;;;;1.85;1.10;;;11.50;53.00;;;;;;3927186;30;20063;-64
2022/04/02 08:21:46;;;;;;;3.72;1.30;;;11.50;53.00;;;;;;3913917;30;20452;-64
2022/04/02 08:24:09;;;;;;;1.85;1.13;;;11.50;52.70;;;;;;3927139;30;20548;-64
2022/04/02 08:26:45;;;;;;;3.22;1.90;;;11.50;53.30;;;;;;3925133;30;20413;-64
2022/04/02 08:29:25;;;;;;;1.52;1.02;;;11.50;52.40;;;;;;3899475;30;20145;-64
2022/04/02 08:32:12;;;;;;;2.72;0.93;;;11.50;50.60;;;;;;3926445;30;20425;-64
2022/04/02 08:34:49;;;;;;;3.67;1.50;;;11.40;51.30;;;;;;3926884;30;20133;-64
2022/04/02 08:37:18;;;;;;;3.15;1.13;;;11.40;50.40;;;;;;3912855;30;20055;-64
2022/04/02 08:39:51;;;;;;;2.67;1.10;;;11.40;50.90;;;;;;3912226;30;20513;-64
2022/04/02 08:43:01;;;;;;;1.23;0.82;;;11.40;51.30;;;;;;3927156;30;20064;-64
2022/04/02 08:45:28;;;;;;;4.20;1.15;;;11.30;51.00;;;;;;3913236;30;20414;-64
2022/04/02 08:48:24;;;;;;;3.60;1.00;;;11.30;51.40;;;;;;3926936;30;20086;-62
2022/04/02 08:50:49;;;;;;;4.10;1.30;;;11.30;51.40;;;;;;3926868;30;20464;-64
2022/04/02 08:53:21;;;;;;;5.00;1.23;;;11.30;51.40;;;;;;3926844;30;20093;-64
2022/04/02 08:55:47;;;;;;;2.13;0.95;;;11.30;51.20;;;;;;3925937;30;20056;-64
2022/04/02 08:58:12;;;;;;;4.38;1.13;;;11.30;51.30;;;;;;3926290;30;20059;-64
2022/04/02 09:00:40;;;;;;;3.55;1.33;;;11.30;51.50;;;;;;3926464;30;20056;-63
2022/04/02 09:03:21;;;;;;;3.85;1.52;;;11.30;51.00;;;;;;3927146;30;20425;-64
2022/04/02 09:06:01;;;;;;;1.80;1.10;;;11.20;50.50;;;;;;3926879;30;20080;-65
2022/04/02 09:08:48;;;;;;;4.80;1.60;;;11.20;51.50;;;;;;3931892;30;20142;-64
2022/04/02 09:11:25;;;;;;;1.70;1.45;;;11.20;51.50;;;;;;3926177;30;20060;-65
2022/04/02 09:14:21;;;;;;;2.92;0.80;;;11.20;51.40;;;;;;3925718;30;20095;-65
2022/04/02 09:17:01;;;;;;;2.92;0.98;;;11.20;51.60;;;;;;3921793;30;20539;-64
2022/04/02 09:19:30;;;;;;;2.33;1.23;;;11.20;52.20;;;;;;3926182;30;20052;-64
2022/04/02 09:22:15;;;;;;;1.65;1.48;;;11.20;52.30;;;;;;3926597;30;20054;-64
2022/04/02 09:25:20;;;;;;;2.58;1.50;;;11.20;51.70;;;;;;3926429;30;20470;-64
2022/04/02 09:28:11;;;;;;;2.78;1.38;;;11.20;51.80;;;;;;3926021;30;20476;-64
2022/04/02 09:31:00;;;;;;;4.47;1.50;;;11.20;51.30;;;;;;3928862;30;20056;-64
2022/04/02 09:33:45;;;;;;;2.05;1.58;;;11.20;50.20;;;;;;3912765;30;20579;-64
2022/04/02 09:36:24;;;;;;;2.55;1.60;;;11.20;49.70;;;;;;3935384;30;20055;-64
2022/04/02 09:39:04;;;;;;;2.22;1.48;;;11.20;49.50;;;;;;3918962;30;20052;-64
2022/04/02 09:41:41;;;;;;;2.72;1.52;;;11.10;49.70;;;;;;3926330;30;20069;-64
2022/04/02 09:44:32;;;;;;;4.13;1.70;;;11.10;50.20;;;;;;3928960;30;20232;-63
2022/04/02 09:47:01;;;;;;;1.67;1.50;;;11.10;50.70;;;;;;3928452;30;20075;-64
2022/04/02 09:49:29;;;;;;;3.58;1.98;;;11.10;51.10;;;;;;3915965;30;20060;-64
2022/04/02 09:52:02;;;;;;;2.35;1.48;;;11.10;50.70;;;;;;3928800;30;20113;-64
2022/04/02 09:54:37;;;;;;;2.22;1.27;;;11.10;50.70;;;;;;3929390;30;20060;-64
2022/04/02 09:57:09;;;;;;;1.67;1.08;;;11.20;51.50;;;;;;3927964;30;20056;-64
2022/04/02 09:59:40;;;;;;;1.35;1.20;;;11.50;54.50;;;;;;3914472;30;20147;-64
2022/04/02 10:02:04;;;;;;;3.28;1.45;;;12.10;54.30;;;;;;3918257;30;20059;-64
2022/04/02 10:04:40;;;;;;;5.68;1.75;;;12.80;53.00;;;;;;3921221;30;20117;-64
2022/04/02 10:07:04;;;;;;;7.18;1.52;;;13.60;50.00;;;;;;3928690;30;20059;-64
2022/04/02 10:09:31;;;;;;;3.47;1.35;;;14.40;48.50;;;;;;3927977;30;20068;-64
2022/04/02 10:11:55;;;;;;;1.77;1.20;;;15.10;48.00;;;;;;3919917;30;20071;-65
2022/04/02 10:14:20;;;;;;;2.42;1.00;;;15.90;46.10;;;;;;3931104;30;20417;-65
2022/04/02 10:16:48;;;;;;;6.07;1.60;;;16.40;43.30;;;;;;3928562;30;20266;-65
2022/04/02 10:19:11;;;;;;;1.63;1.20;;;16.70;41.30;;;;;;3928027;30;20084;-65
2022/04/02 10:21:36;;;;;;;4.18;1.30;;;17.00;43.30;;;;;;3920501;30;20052;-64
2022/04/02 10:24:08;;;;;;;3.97;1.58;;;17.00;43.20;;;;;;3927257;30;20084;-65
2022/04/02 10:26:37;;;;;;;3.95;1.83;;;17.00;43.60;;;;;;3902874;30;20469;-65
2022/04/02 10:29:08;;;;;;;3.08;1.40;;;16.90;42.90;;;;;;3918310;30;20443;-65
2022/04/02 10:31:36;;;;;;;1.40;1.30;;;16.70;42.00;;;;;;3928211;30;20510;-64
2022/04/02 10:34:09;;;;;;;1.85;1.45;;;16.50;43.70;;;;;;3928557;30;20060;-65
2022/04/02 10:36:33;;;;;;;2.90;1.50;;;16.30;44.10;;;;;;3928033;30;20500;-64
2022/04/02 10:38:56;;;;;;;3.50;1.33;;;16.10;44.00;;;;;;3928256;30;20151;-64
2022/04/02 10:41:18;;;;;;;4.60;1.30;;;15.90;44.60;;;;;;3928514;30;20195;-65
2022/04/02 10:43:50;;;;;;;5.10;1.30;;;15.70;44.40;;;;;;3913908;30;20056;-64
2022/04/02 10:46:16;;;;;;;3.25;1.60;;;15.50;44.00;;;;;;3913455;30;20498;-65
2022/04/02 10:48:55;;;;;;;5.68;1.50;;;15.30;44.60;;;;;;3913618;30;20417;-65
2022/04/02 10:51:24;;;;;;;2.05;1.50;;;15.10;43.70;;;;;;3923717;30;20139;-65
2022/04/02 10:53:46;;;;;;;2.70;1.65;;;14.90;45.00;;;;;;3927079;30;20110;-65
2022/04/02 10:56:16;;;;;;;4.63;1.67;;;14.70;44.80;;;;;;3927831;30;20052;-65
2022/04/02 10:58:48;;;;;;;2.95;1.30;;;14.60;45.30;;;;;;3914064;30;20135;-65
2022/04/02 11:01:12;;;;;;;3.33;1.33;;;14.60;45.50;;;;;;3927456;30;20067;-66
2022/04/02 11:03:40;;;;;;;2.40;1.25;;;14.60;44.40;;;;;;3927290;30;20156;-65
2022/04/02 11:06:02;;;;;;;3.55;1.40;;;14.70;44.30;;;;;;3927011;30;20139;-62
2022/04/02 11:08:31;;;;;;;2.58;0.95;;;14.80;44.70;;;;;;3926181;30;20105;-64
2022/04/02 11:10:54;;;;;;;3.88;2.00;;;14.90;46.00;;;;;;3930837;30;20060;-65
2022/04/02 11:13:29;;;;;;;2.85;1.35;;;15.00;45.00;;;;;;3927603;30;20059;-66
2022/04/02 11:15:54;;;;;;;3.03;1.83;;;15.00;43.90;;;;;;3926891;30;20060;-64
2022/04/02 11:18:18;;;;;;;1.30;1.20;;;15.10;44.00;;;;;;3927020;30;20075;-65
2022/04/02 11:20:43;;;;;;;4.78;1.52;;;15.20;45.60;;;;;;3912729;30;20057;-65
2022/04/02 11:23:19;;;;;;;1.67;1.38;;;15.20;44.80;;;;;;3912688;30;20060;-65
2022/04/02 11:25:48;;;;;;;1.17;1.10;;;15.20;46.20;;;;;;3912569;30;20060;-64
2022/04/02 11:28:13;;;;;;;2.72;1.42;;;15.30;45.30;;;;;;3926774;30;20472;-65
2022/04/02 11:30:39;;;;;;;1.48;1.13;;;15.40;47.20;;;;;;3926938;30;20562;-65
2022/04/02 11:33:06;;;;;;;1.75;1.15;;;15.50;46.70;;;;;;3913777;30;20114;-64
2022/04/02 11:35:31;;;;;;;1.48;1.10;;;15.50;43.00;;;;;;3927494;30;20489;-63
2022/04/02 11:38:03;;;;;;;1.50;0.98;;;15.60;44.70;;;;;;3927567;30;20070;-63
2022/04/02 11:40:28;;;;;;;3.63;1.20;;;15.60;44.70;;;;;;3912365;30;20052;-63
2022/04/02 11:42:51;;;;;;;2.70;1.00;;;15.60;44.10;;;;;;3917179;30;20055;-63
2022/04/02 11:45:20;;;;;;;1.58;1.05;;;15.50;41.90;;;;;;3912788;30;20063;-63
2022/04/02 11:47:48;;;;;;;2.90;1.10;;;15.50;41.40;;;;;;3927135;30;20048;-63
2022/04/02 11:50:11;;;;;;;1.77;1.38;;;15.50;45.20;;;;;;3926599;30;20051;-63
2022/04/02 11:52:50;;;;;;;3.05;0.90;;;15.50;43.30;;;;;;3912900;30;20060;-63
2022/04/02 11:55:12;;;;;;;1.00;1.00;;;15.40;44.50;;;;;;3912001;30;20056;-64
2022/04/02 11:57:34;;;;;;;0.85;0.70;;;15.40;43.90;;;;;;3912804;30;20065;-66
2022/04/02 12:00:01;;;;;;;1.02;0.90;;;15.40;43.10;;;;;;3911787;30;20062;-62
2022/04/02 12:02:37;;;;;;;1.30;0.90;;;15.40;43.70;;;;;;3912642;30;20059;-66
2022/04/02 12:05:01;;;;;;;2.83;1.10;;;15.40;44.80;;;;;;3921706;30;20544;-64
2022/04/02 12:07:25;;;;;;;2.53;1.10;;;15.40;43.70;;;;;;3913231;30;20064;-67
2022/04/02 12:09:51;;;;;;;1.48;0.73;;;15.40;42.20;;;;;;3926061;30;20557;-65
2022/04/02 12:12:23;;;;;;;2.28;1.10;;;15.40;42.60;;;;;;3911446;30;20128;-64
2022/04/02 12:14:46;;;;;;;1.75;1.00;;;15.40;45.00;;;;;;3915335;30;20508;-63
2022/04/02 12:17:11;;;;;;;2.78;1.55;;;15.40;43.50;;;;;;3925737;30;20141;-64
2022/04/02 12:19:42;;;;;;;4.38;1.45;;;15.40;43.70;;;;;;3926876;30;20373;-66
2022/04/02 12:22:17;;;;;;;4.18;1.38;;;15.40;44.30;;;;;;3926433;30;20051;-65
2022/04/02 12:24:40;;;;;;;2.33;1.20;;;15.30;41.80;;;;;;3926142;30;20048;-67
2022/04/02 12:27:06;;;;;;;1.95;1.30;;;15.30;42.10;;;;;;3911463;30;20505;-65
2022/04/02 12:29:29;;;;;;;4.13;1.48;;;15.10;41.10;;;;;;3926157;30;20055;-65
2022/04/02 12:31:51;;;;;;;2.13;1.33;;;15.10;43.20;;;;;;3913034;30;20059;-65
2022/04/02 12:34:21;;;;;;;2.80;1.40;;;15.00;44.00;;;;;;3924816;30;20051;-63
2022/04/02 12:36:44;;;;;;;3.70;1.30;;;14.90;45.20;;;;;;3926519;30;20060;-64
2022/04/02 12:39:08;;;;;;;1.90;1.50;;;14.90;45.60;;;;;;3925994;30;20446;-65
2022/04/02 12:41:30;;;;;;;2.50;1.50;;;14.90;43.70;;;;;;3926263;30;20587;-63
2022/04/02 12:44:00;;;;;;;1.65;1.20;;;15.00;44.30;;;;;;3926007;30;20117;-62
2022/04/02 12:46:23;;;;;;;2.53;1.10;;;15.10;43.20;;;;;;3925735;30;20139;-63